sensor_id;sensor_type;location;lat;lon;timestamp;pressure;altitude;pressure_sealevel;temperature
20733;BMP180;10527;52.124;5.196;2022-12-19T00:01:35;101571.00;;;11.10
20733;BMP180;10527;52.124;5.196;2022-12-19T00:04:09;101565.00;;;11.10
20733;BMP180;10527;52.124;5.196;2022-12-19T00:06:38;101573.00;;;11.10
20733;BMP180;10527;52.124;5.196;2022-12-19T00:09:11;101554.00;;;11.20
20733;BMP180;10527;52.124;5.196;2022-12-19T00:11:39;101566.00;;;11.20
20733;BMP180;10527;52.124;5.196;2022-12-19T00:14:09;101555.00;;;11.20
20733;BMP180;10527;52.124;5.196;2022-12-19T00:16:37;101563.00;;;11.20
20733;BMP180;10527;52.124;5.196;2022-12-19T00:19:06;101572.00;;;11.20
20733;BMP180;10527;52.124;5.196;2022-12-19T00:21:33;101558.00;;;11.20
20733;BMP180;10527;52.124;5.196;2022-12-19T00:24:07;101553.00;;;11.30
20733;BMP180;10527;52.124;5.196;2022-12-19T00:26:48;101542.00;;;11.30
20733;BMP180;10527;52.124;5.196;2022-12-19T00:29:16;101539.00;;;11.30
20733;BMP180;10527;52.124;5.196;2022-12-19T00:31:43;101544.00;;;11.30
20733;BMP180;10527;52.124;5.196;2022-12-19T00:34:10;101544.00;;;11.30
20733;BMP180;10527;52.124;5.196;2022-12-19T00:36:37;101562.00;;;11.30
20733;BMP180;10527;52.124;5.196;2022-12-19T00:39:05;101538.00;;;11.40
20733;BMP180;10527;52.124;5.196;2022-12-19T00:41:37;101550.00;;;11.40
20733;BMP180;10527;52.124;5.196;2022-12-19T00:44:15;101518.00;;;11.40
20733;BMP180;10527;52.124;5.196;2022-12-19T00:46:42;101508.00;;;11.40
20733;BMP180;10527;52.124;5.196;2022-12-19T00:49:18;101504.00;;;11.40
20733;BMP180;10527;52.124;5.196;2022-12-19T00:51:45;101499.00;;;11.40
20733;BMP180;10527;52.124;5.196;2022-12-19T00:54:11;101487.00;;;11.40
20733;BMP180;10527;52.124;5.196;2022-12-19T00:56:38;101493.00;;;11.40
20733;BMP180;10527;52.124;5.196;2022-12-19T00:59:05;101483.00;;;11.40
20733;BMP180;10527;52.124;5.196;2022-12-19T01:01:36;101494.00;;;11.50
20733;BMP180;10527;52.124;5.196;2022-12-19T01:04:09;101480.00;;;11.50
20733;BMP180;10527;52.124;5.196;2022-12-19T01:06:55;101487.00;;;11.50
20733;BMP180;10527;52.124;5.196;2022-12-19T01:09:27;101477.00;;;11.50
20733;BMP180;10527;52.124;5.196;2022-12-19T01:11:57;101484.00;;;11.50
20733;BMP180;10527;52.124;5.196;2022-12-19T01:14:43;101479.00;;;11.50
20733;BMP180;10527;52.124;5.196;2022-12-19T01:17:10;101483.00;;;11.60
20733;BMP180;10527;52.124;5.196;2022-12-19T01:19:37;101483.00;;;11.60
20733;BMP180;10527;52.124;5.196;2022-12-19T01:22:11;101486.00;;;11.60
20733;BMP180;10527;52.124;5.196;2022-12-19T01:24:40;101473.00;;;11.70
20733;BMP180;10527;52.124;5.196;2022-12-19T01:27:07;101464.00;;;11.70
20733;BMP180;10527;52.124;5.196;2022-12-19T01:29:34;101463.00;;;11.70
20733;BMP180;10527;52.124;5.196;2022-12-19T01:32:05;101474.00;;;11.70
20733;BMP180;10527;52.124;5.196;2022-12-19T01:34:35;101466.00;;;11.70
20733;BMP180;10527;52.124;5.196;2022-12-19T01:37:01;101460.00;;;11.70
20733;BMP180;10527;52.124;5.196;2022-12-19T01:39:28;101457.00;;;11.70
20733;BMP180;10527;52.124;5.196;2022-12-19T01:41:58;101448.00;;;11.70
20733;BMP180;10527;52.124;5.196;2022-12-19T01:44:25;101454.00;;;11.80
20733;BMP180;10527;52.124;5.196;2022-12-19T01:46:56;101438.00;;;11.80
20733;BMP180;10527;52.124;5.196;2022-12-19T01:49:34;101450.00;;;11.80
20733;BMP180;10527;52.124;5.196;2022-12-19T01:52:06;101446.00;;;11.80
20733;BMP180;10527;52.124;5.196;2022-12-19T01:54:39;101438.00;;;11.80
20733;BMP180;10527;52.124;5.196;2022-12-19T01:57:11;101434.00;;;11.90
20733;BMP180;10527;52.124;5.196;2022-12-19T01:59:49;101436.00;;;11.90
20733;BMP180;10527;52.124;5.196;2022-12-19T02:02:30;101431.00;;;12.00
20733;BMP180;10527;52.124;5.196;2022-12-19T02:04:59;101421.00;;;12.00
20733;BMP180;10527;52.124;5.196;2022-12-19T02:07:27;101419.00;;;12.00
20733;BMP180;10527;52.124;5.196;2022-12-19T02:09:55;101422.00;;;12.10
20733;BMP180;10527;52.124;5.196;2022-12-19T02:12:32;101411.00;;;12.10
20733;BMP180;10527;52.124;5.196;2022-12-19T02:15:03;101403.00;;;12.10
20733;BMP180;10527;52.124;5.196;2022-12-19T02:37:58;101370.00;;;12.40
20733;BMP180;10527;52.124;5.196;2022-12-19T02:40:39;101370.00;;;12.50
20733;BMP180;10527;52.124;5.196;2022-12-19T02:43:11;101363.00;;;12.50
20733;BMP180;10527;52.124;5.196;2022-12-19T02:45:41;101351.00;;;12.50
20733;BMP180;10527;52.124;5.196;2022-12-19T02:48:08;101342.00;;;12.50
20733;BMP180;10527;52.124;5.196;2022-12-19T02:50:44;101338.00;;;12.60
20733;BMP180;10527;52.124;5.196;2022-12-19T02:53:17;101324.00;;;12.60
20733;BMP180;10527;52.124;5.196;2022-12-19T02:59:21;101330.00;;;12.70
20733;BMP180;10527;52.124;5.196;2022-12-19T03:02:22;101335.00;;;12.80
20733;BMP180;10527;52.124;5.196;2022-12-19T03:05:23;101341.00;;;12.80
20733;BMP180;10527;52.124;5.196;2022-12-19T03:08:00;101335.00;;;12.80
20733;BMP180;10527;52.124;5.196;2022-12-19T03:10:40;101329.00;;;12.80
20733;BMP180;10527;52.124;5.196;2022-12-19T03:13:57;101330.00;;;12.90
20733;BMP180;10527;52.124;5.196;2022-12-19T03:16:26;101314.00;;;12.90
20733;BMP180;10527;52.124;5.196;2022-12-19T03:18:53;101322.00;;;13.00
20733;BMP180;10527;52.124;5.196;2022-12-19T03:21:34;101328.00;;;13.00
20733;BMP180;10527;52.124;5.196;2022-12-19T03:24:09;101326.00;;;13.00
20733;BMP180;10527;52.124;5.196;2022-12-19T03:26:58;101326.00;;;13.10
20733;BMP180;10527;52.124;5.196;2022-12-19T03:29:49;101305.00;;;13.10
20733;BMP180;10527;52.124;5.196;2022-12-19T03:32:18;101309.00;;;13.10
20733;BMP180;10527;52.124;5.196;2022-12-19T03:37:31;101308.00;;;13.20
20733;BMP180;10527;52.124;5.196;2022-12-19T03:40:10;101292.00;;;13.20
20733;BMP180;10527;52.124;5.196;2022-12-19T03:42:40;101297.00;;;13.20
20733;BMP180;10527;52.124;5.196;2022-12-19T03:48:15;101294.00;;;13.30
20733;BMP180;10527;52.124;5.196;2022-12-19T03:56:49;101281.00;;;13.50
20733;BMP180;10527;52.124;5.196;2022-12-19T03:59:34;101285.00;;;13.50
20733;BMP180;10527;52.124;5.196;2022-12-19T04:02:20;101291.00;;;13.50
20733;BMP180;10527;52.124;5.196;2022-12-19T04:04:55;101292.00;;;13.50
20733;BMP180;10527;52.124;5.196;2022-12-19T04:07:26;101278.00;;;13.50
20733;BMP180;10527;52.124;5.196;2022-12-19T04:09:56;101291.00;;;13.60
20733;BMP180;10527;52.124;5.196;2022-12-19T04:12:34;101292.00;;;13.60
20733;BMP180;10527;52.124;5.196;2022-12-19T04:15:04;101272.00;;;13.70
20733;BMP180;10527;52.124;5.196;2022-12-19T04:17:50;101262.00;;;13.70
20733;BMP180;10527;52.124;5.196;2022-12-19T04:20:21;101282.00;;;13.70
20733;BMP180;10527;52.124;5.196;2022-12-19T04:23:07;101262.00;;;13.70
20733;BMP180;10527;52.124;5.196;2022-12-19T04:25:46;101283.00;;;13.80
20733;BMP180;10527;52.124;5.196;2022-12-19T04:28:23;101267.00;;;13.80
20733;BMP180;10527;52.124;5.196;2022-12-19T04:30:51;101269.00;;;13.80
20733;BMP180;10527;52.124;5.196;2022-12-19T04:33:19;101274.00;;;13.80
20733;BMP180;10527;52.124;5.196;2022-12-19T04:35:46;101269.00;;;13.80
20733;BMP180;10527;52.124;5.196;2022-12-19T04:38:12;101273.00;;;13.90
20733;BMP180;10527;52.124;5.196;2022-12-19T04:40:39;101258.00;;;13.90
20733;BMP180;10527;52.124;5.196;2022-12-19T04:43:08;101266.00;;;13.90
20733;BMP180;10527;52.124;5.196;2022-12-19T04:45:35;101253.00;;;13.90
20733;BMP180;10527;52.124;5.196;2022-12-19T04:48:03;101261.00;;;14.00
20733;BMP180;10527;52.124;5.196;2022-12-19T04:50:33;101255.00;;;14.00
20733;BMP180;10527;52.124;5.196;2022-12-19T04:53:01;101252.00;;;14.10
20733;BMP180;10527;52.124;5.196;2022-12-19T04:55:27;101252.00;;;14.10
20733;BMP180;10527;52.124;5.196;2022-12-19T04:57:55;101258.00;;;14.10
20733;BMP180;10527;52.124;5.196;2022-12-19T05:00:23;101253.00;;;14.20
20733;BMP180;10527;52.124;5.196;2022-12-19T05:02:49;101246.00;;;14.20
20733;BMP180;10527;52.124;5.196;2022-12-19T05:05:17;101259.00;;;14.30
20733;BMP180;10527;52.124;5.196;2022-12-19T05:07:44;101252.00;;;14.30
20733;BMP180;10527;52.124;5.196;2022-12-19T05:10:13;101245.00;;;14.30
20733;BMP180;10527;52.124;5.196;2022-12-19T05:12:40;101256.00;;;14.40
20733;BMP180;10527;52.124;5.196;2022-12-19T05:15:08;101243.00;;;14.40
20733;BMP180;10527;52.124;5.196;2022-12-19T05:17:36;101237.00;;;14.50
20733;BMP180;10527;52.124;5.196;2022-12-19T05:20:04;101240.00;;;14.50
20733;BMP180;10527;52.124;5.196;2022-12-19T05:22:34;101234.00;;;14.50
20733;BMP180;10527;52.124;5.196;2022-12-19T05:25:00;101243.00;;;14.60
20733;BMP180;10527;52.124;5.196;2022-12-19T05:27:27;101231.00;;;14.60
20733;BMP180;10527;52.124;5.196;2022-12-19T05:29:54;101228.00;;;14.60
20733;BMP180;10527;52.124;5.196;2022-12-19T05:32:21;101239.00;;;14.70
20733;BMP180;10527;52.124;5.196;2022-12-19T05:34:48;101230.00;;;14.70
20733;BMP180;10527;52.124;5.196;2022-12-19T05:37:16;101224.00;;;14.70
20733;BMP180;10527;52.124;5.196;2022-12-19T05:39:43;101234.00;;;14.70
20733;BMP180;10527;52.124;5.196;2022-12-19T05:42:09;101239.00;;;14.80
20733;BMP180;10527;52.124;5.196;2022-12-19T05:44:38;101226.00;;;14.90
20733;BMP180;10527;52.124;5.196;2022-12-19T05:47:05;101228.00;;;14.90
20733;BMP180;10527;52.124;5.196;2022-12-19T05:49:31;101236.00;;;14.90
20733;BMP180;10527;52.124;5.196;2022-12-19T05:51:58;101233.00;;;15.00
20733;BMP180;10527;52.124;5.196;2022-12-19T05:54:25;101228.00;;;15.00
20733;BMP180;10527;52.124;5.196;2022-12-19T05:56:52;101234.00;;;15.00
20733;BMP180;10527;52.124;5.196;2022-12-19T05:59:18;101248.00;;;15.10
20733;BMP180;10527;52.124;5.196;2022-12-19T06:01:45;101256.00;;;15.10
20733;BMP180;10527;52.124;5.196;2022-12-19T06:04:12;101252.00;;;15.20
20733;BMP180;10527;52.124;5.196;2022-12-19T06:06:39;101239.00;;;15.20
20733;BMP180;10527;52.124;5.196;2022-12-19T06:09:06;101242.00;;;15.30
20733;BMP180;10527;52.124;5.196;2022-12-19T06:11:33;101237.00;;;15.30
20733;BMP180;10527;52.124;5.196;2022-12-19T06:14:01;101243.00;;;15.40
20733;BMP180;10527;52.124;5.196;2022-12-19T06:16:28;101238.00;;;15.40
20733;BMP180;10527;52.124;5.196;2022-12-19T06:18:55;101229.00;;;15.40
20733;BMP180;10527;52.124;5.196;2022-12-19T06:21:22;101244.00;;;15.50
20733;BMP180;10527;52.124;5.196;2022-12-19T06:23:49;101233.00;;;15.50
20733;BMP180;10527;52.124;5.196;2022-12-19T06:26:19;101234.00;;;15.60
20733;BMP180;10527;52.124;5.196;2022-12-19T06:28:48;101242.00;;;15.60
20733;BMP180;10527;52.124;5.196;2022-12-19T06:31:16;101232.00;;;15.60
20733;BMP180;10527;52.124;5.196;2022-12-19T06:33:44;101244.00;;;15.70
20733;BMP180;10527;52.124;5.196;2022-12-19T06:36:23;101224.00;;;15.70
20733;BMP180;10527;52.124;5.196;2022-12-19T06:38:53;101237.00;;;15.70
20733;BMP180;10527;52.124;5.196;2022-12-19T06:41:20;101220.00;;;15.80
20733;BMP180;10527;52.124;5.196;2022-12-19T06:44:10;101236.00;;;15.80
20733;BMP180;10527;52.124;5.196;2022-12-19T06:46:39;101237.00;;;15.80
20733;BMP180;10527;52.124;5.196;2022-12-19T06:49:08;101228.00;;;15.90
20733;BMP180;10527;52.124;5.196;2022-12-19T06:51:36;101240.00;;;15.90
20733;BMP180;10527;52.124;5.196;2022-12-19T06:54:03;101220.00;;;15.90
20733;BMP180;10527;52.124;5.196;2022-12-19T06:56:35;101220.00;;;15.90
20733;BMP180;10527;52.124;5.196;2022-12-19T06:59:05;101242.00;;;15.90
20733;BMP180;10527;52.124;5.196;2022-12-19T07:01:59;101224.00;;;16.00
20733;BMP180;10527;52.124;5.196;2022-12-19T07:04:33;101246.00;;;16.00
20733;BMP180;10527;52.124;5.196;2022-12-19T07:07:00;101233.00;;;16.00
20733;BMP180;10527;52.124;5.196;2022-12-19T07:09:29;101242.00;;;16.10
20733;BMP180;10527;52.124;5.196;2022-12-19T07:11:56;101240.00;;;16.10
20733;BMP180;10527;52.124;5.196;2022-12-19T07:14:23;101246.00;;;16.10
20733;BMP180;10527;52.124;5.196;2022-12-19T07:16:51;101227.00;;;16.10
20733;BMP180;10527;52.124;5.196;2022-12-19T07:19:20;101251.00;;;16.20
20733;BMP180;10527;52.124;5.196;2022-12-19T07:21:48;101231.00;;;16.20
20733;BMP180;10527;52.124;5.196;2022-12-19T07:24:28;101257.00;;;16.30
20733;BMP180;10527;52.124;5.196;2022-12-19T07:26:57;101252.00;;;16.30
20733;BMP180;10527;52.124;5.196;2022-12-19T07:29:29;101248.00;;;16.30
20733;BMP180;10527;52.124;5.196;2022-12-19T07:31:56;101255.00;;;16.30
20733;BMP180;10527;52.124;5.196;2022-12-19T07:34:29;101259.00;;;16.40
20733;BMP180;10527;52.124;5.196;2022-12-19T07:36:58;101258.00;;;16.50
20733;BMP180;10527;52.124;5.196;2022-12-19T07:39:25;101264.00;;;16.50
20733;BMP180;10527;52.124;5.196;2022-12-19T07:41:52;101255.00;;;16.50
20733;BMP180;10527;52.124;5.196;2022-12-19T07:44:19;101259.00;;;16.50
20733;BMP180;10527;52.124;5.196;2022-12-19T07:46:46;101262.00;;;16.50
20733;BMP180;10527;52.124;5.196;2022-12-19T07:49:13;101267.00;;;16.60
20733;BMP180;10527;52.124;5.196;2022-12-19T07:51:47;101266.00;;;16.60
20733;BMP180;10527;52.124;5.196;2022-12-19T07:54:14;101263.00;;;16.60
20733;BMP180;10527;52.124;5.196;2022-12-19T07:56:41;101263.00;;;16.60
20733;BMP180;10527;52.124;5.196;2022-12-19T07:59:08;101265.00;;;16.60
20733;BMP180;10527;52.124;5.196;2022-12-19T08:01:39;101273.00;;;16.60
20733;BMP180;10527;52.124;5.196;2022-12-19T08:04:06;101267.00;;;16.70
20733;BMP180;10527;52.124;5.196;2022-12-19T08:06:34;101275.00;;;16.70
20733;BMP180;10527;52.124;5.196;2022-12-19T08:09:07;101263.00;;;16.70
20733;BMP180;10527;52.124;5.196;2022-12-19T08:11:34;101278.00;;;16.70
20733;BMP180;10527;52.124;5.196;2022-12-19T08:14:00;101275.00;;;16.80
20733;BMP180;10527;52.124;5.196;2022-12-19T08:16:27;101273.00;;;16.80
20733;BMP180;10527;52.124;5.196;2022-12-19T08:18:54;101282.00;;;16.80
20733;BMP180;10527;52.124;5.196;2022-12-19T08:21:23;101284.00;;;16.80
20733;BMP180;10527;52.124;5.196;2022-12-19T08:23:51;101273.00;;;16.80
20733;BMP180;10527;52.124;5.196;2022-12-19T08:26:20;101286.00;;;16.90
20733;BMP180;10527;52.124;5.196;2022-12-19T08:28:58;101285.00;;;16.90
20733;BMP180;10527;52.124;5.196;2022-12-19T08:31:26;101283.00;;;16.90
20733;BMP180;10527;52.124;5.196;2022-12-19T08:33:56;101286.00;;;16.90
20733;BMP180;10527;52.124;5.196;2022-12-19T08:36:24;101281.00;;;16.90
20733;BMP180;10527;52.124;5.196;2022-12-19T08:38:52;101286.00;;;17.00
20733;BMP180;10527;52.124;5.196;2022-12-19T08:41:19;101289.00;;;17.00
20733;BMP180;10527;52.124;5.196;2022-12-19T08:43:52;101293.00;;;17.00
20733;BMP180;10527;52.124;5.196;2022-12-19T08:46:20;101300.00;;;17.00
20733;BMP180;10527;52.124;5.196;2022-12-19T08:48:48;101294.00;;;17.00
20733;BMP180;10527;52.124;5.196;2022-12-19T08:51:16;101306.00;;;17.00
20733;BMP180;10527;52.124;5.196;2022-12-19T08:53:45;101294.00;;;17.00
20733;BMP180;10527;52.124;5.196;2022-12-19T08:56:16;101285.00;;;17.00
20733;BMP180;10527;52.124;5.196;2022-12-19T08:58:43;101295.00;;;17.00
20733;BMP180;10527;52.124;5.196;2022-12-19T09:01:17;101298.00;;;17.00
20733;BMP180;10527;52.124;5.196;2022-12-19T09:03:49;101291.00;;;17.00
20733;BMP180;10527;52.124;5.196;2022-12-19T09:06:36;101301.00;;;17.00
20733;BMP180;10527;52.124;5.196;2022-12-19T09:09:04;101304.00;;;17.10
20733;BMP180;10527;52.124;5.196;2022-12-19T09:11:31;101302.00;;;17.10
20733;BMP180;10527;52.124;5.196;2022-12-19T09:14:01;101306.00;;;17.10
20733;BMP180;10527;52.124;5.196;2022-12-19T09:16:30;101301.00;;;17.10
20733;BMP180;10527;52.124;5.196;2022-12-19T09:18:57;101307.00;;;17.10
20733;BMP180;10527;52.124;5.196;2022-12-19T09:21:27;101297.00;;;17.10
20733;BMP180;10527;52.124;5.196;2022-12-19T09:23:58;101311.00;;;17.10
20733;BMP180;10527;52.124;5.196;2022-12-19T09:26:34;101300.00;;;17.10
20733;BMP180;10527;52.124;5.196;2022-12-19T09:29:01;101297.00;;;17.10
20733;BMP180;10527;52.124;5.196;2022-12-19T09:31:33;101303.00;;;17.10
20733;BMP180;10527;52.124;5.196;2022-12-19T09:34:00;101304.00;;;17.10
20733;BMP180;10527;52.124;5.196;2022-12-19T09:36:27;101323.00;;;17.20
20733;BMP180;10527;52.124;5.196;2022-12-19T09:38:56;101325.00;;;17.20
20733;BMP180;10527;52.124;5.196;2022-12-19T09:41:36;101323.00;;;17.20
20733;BMP180;10527;52.124;5.196;2022-12-19T09:47:29;101328.00;;;17.20
20733;BMP180;10527;52.124;5.196;2022-12-19T09:49:58;101320.00;;;17.20
20733;BMP180;10527;52.124;5.196;2022-12-19T09:52:42;101332.00;;;17.30
20733;BMP180;10527;52.124;5.196;2022-12-19T09:55:21;101320.00;;;17.30
20733;BMP180;10527;52.124;5.196;2022-12-19T09:58:00;101314.00;;;17.30
20733;BMP180;10527;52.124;5.196;2022-12-19T10:00:50;101323.00;;;17.30
20733;BMP180;10527;52.124;5.196;2022-12-19T10:03:33;101313.00;;;17.30
20733;BMP180;10527;52.124;5.196;2022-12-19T10:06:20;101321.00;;;17.30
20733;BMP180;10527;52.124;5.196;2022-12-19T10:09:14;101318.00;;;17.30
20733;BMP180;10527;52.124;5.196;2022-12-19T10:16:15;101311.00;;;17.40
20733;BMP180;10527;52.124;5.196;2022-12-19T10:18:55;101317.00;;;17.40
20733;BMP180;10527;52.124;5.196;2022-12-19T10:21:48;101318.00;;;17.50
20733;BMP180;10527;52.124;5.196;2022-12-19T10:25:28;101322.00;;;17.50
20733;BMP180;10527;52.124;5.196;2022-12-19T10:34:21;101312.00;;;17.50
20733;BMP180;10527;52.124;5.196;2022-12-19T10:36:57;101319.00;;;17.60
20733;BMP180;10527;52.124;5.196;2022-12-19T10:43:55;101306.00;;;17.60
20733;BMP180;10527;52.124;5.196;2022-12-19T10:49:15;101322.00;;;17.60
20733;BMP180;10527;52.124;5.196;2022-12-19T10:52:05;101318.00;;;17.60
20733;BMP180;10527;52.124;5.196;2022-12-19T10:57:25;101312.00;;;17.70
20733;BMP180;10527;52.124;5.196;2022-12-19T11:00:04;101314.00;;;17.70
20733;BMP180;10527;52.124;5.196;2022-12-19T11:05:46;101312.00;;;17.80
20733;BMP180;10527;52.124;5.196;2022-12-19T11:08:29;101300.00;;;17.70
20733;BMP180;10527;52.124;5.196;2022-12-19T11:11:12;101306.00;;;17.80
20733;BMP180;10527;52.124;5.196;2022-12-19T11:14:23;101286.00;;;17.80
20733;BMP180;10527;52.124;5.196;2022-12-19T11:17:36;101289.00;;;17.80
20733;BMP180;10527;52.124;5.196;2022-12-19T11:20:23;101283.00;;;17.80
20733;BMP180;10527;52.124;5.196;2022-12-19T11:23:12;101283.00;;;17.90
20733;BMP180;10527;52.124;5.196;2022-12-19T11:26:04;101266.00;;;17.90
20733;BMP180;10527;52.124;5.196;2022-12-19T11:28:51;101267.00;;;18.00
20733;BMP180;10527;52.124;5.196;2022-12-19T11:31:38;101271.00;;;18.00
20733;BMP180;10527;52.124;5.196;2022-12-19T11:34:33;101284.00;;;18.00
20733;BMP180;10527;52.124;5.196;2022-12-19T11:37:19;101283.00;;;18.00
20733;BMP180;10527;52.124;5.196;2022-12-19T11:39:55;101287.00;;;18.10
20733;BMP180;10527;52.124;5.196;2022-12-19T11:42:37;101283.00;;;18.10
20733;BMP180;10527;52.124;5.196;2022-12-19T11:45:18;101284.00;;;18.10
20733;BMP180;10527;52.124;5.196;2022-12-19T11:48:04;101290.00;;;18.10
20733;BMP180;10527;52.124;5.196;2022-12-19T11:50:48;101290.00;;;18.10
20733;BMP180;10527;52.124;5.196;2022-12-19T11:53:27;101294.00;;;18.20
20733;BMP180;10527;52.124;5.196;2022-12-19T11:56:07;101285.00;;;18.20
20733;BMP180;10527;52.124;5.196;2022-12-19T11:58:54;101290.00;;;18.20
20733;BMP180;10527;52.124;5.196;2022-12-19T12:07:15;101274.00;;;18.30
20733;BMP180;10527;52.124;5.196;2022-12-19T12:10:16;101282.00;;;18.30
20733;BMP180;10527;52.124;5.196;2022-12-19T12:13:50;101279.00;;;18.30
20733;BMP180;10527;52.124;5.196;2022-12-19T12:20:18;101261.00;;;18.40
20733;BMP180;10527;52.124;5.196;2022-12-19T12:23:32;101244.00;;;18.40
20733;BMP180;10527;52.124;5.196;2022-12-19T12:30:11;101241.00;;;18.40
20733;BMP180;10527;52.124;5.196;2022-12-19T12:46:34;101230.00;;;18.50
20733;BMP180;10527;52.124;5.196;2022-12-19T12:49:27;101214.00;;;18.50
20733;BMP180;10527;52.124;5.196;2022-12-19T12:52:00;101215.00;;;18.50
20733;BMP180;10527;52.124;5.196;2022-12-19T12:54:35;101220.00;;;18.50
20733;BMP180;10527;52.124;5.196;2022-12-19T12:57:04;101212.00;;;18.60
20733;BMP180;10527;52.124;5.196;2022-12-19T12:59:31;101220.00;;;18.60
20733;BMP180;10527;52.124;5.196;2022-12-19T13:02:19;101207.00;;;18.60
20733;BMP180;10527;52.124;5.196;2022-12-19T13:04:59;101209.00;;;18.60
20733;BMP180;10527;52.124;5.196;2022-12-19T13:07:50;101195.00;;;18.60
20733;BMP180;10527;52.124;5.196;2022-12-19T13:10:25;101215.00;;;18.70
20733;BMP180;10527;52.124;5.196;2022-12-19T13:13:13;101198.00;;;18.70
20733;BMP180;10527;52.124;5.196;2022-12-19T13:15:45;101203.00;;;18.70
20733;BMP180;10527;52.124;5.196;2022-12-19T13:18:34;101201.00;;;18.70
20733;BMP180;10527;52.124;5.196;2022-12-19T13:21:04;101192.00;;;18.80
20733;BMP180;10527;52.124;5.196;2022-12-19T13:23:43;101187.00;;;18.80
20733;BMP180;10527;52.124;5.196;2022-12-19T13:26:46;101182.00;;;18.80
20733;BMP180;10527;52.124;5.196;2022-12-19T13:29:32;101178.00;;;18.80
20733;BMP180;10527;52.124;5.196;2022-12-19T13:32:13;101182.00;;;18.80
20733;BMP180;10527;52.124;5.196;2022-12-19T13:35:00;101168.00;;;18.80
20733;BMP180;10527;52.124;5.196;2022-12-19T13:38:22;101164.00;;;18.80
20733;BMP180;10527;52.124;5.196;2022-12-19T13:41:29;101177.00;;;18.80
20733;BMP180;10527;52.124;5.196;2022-12-19T13:44:24;101164.00;;;18.70
20733;BMP180;10527;52.124;5.196;2022-12-19T13:46:54;101160.00;;;18.80
20733;BMP180;10527;52.124;5.196;2022-12-19T13:49:29;101164.00;;;18.80
20733;BMP180;10527;52.124;5.196;2022-12-19T13:52:03;101147.00;;;18.80
20733;BMP180;10527;52.124;5.196;2022-12-19T13:54:43;101141.00;;;18.80
20733;BMP180;10527;52.124;5.196;2022-12-19T13:57:29;101149.00;;;18.80
20733;BMP180;10527;52.124;5.196;2022-12-19T14:00:08;101155.00;;;18.90
20733;BMP180;10527;52.124;5.196;2022-12-19T14:02:51;101147.00;;;18.90
20733;BMP180;10527;52.124;5.196;2022-12-19T14:05:36;101150.00;;;18.90
20733;BMP180;10527;52.124;5.196;2022-12-19T14:08:25;101154.00;;;18.90
20733;BMP180;10527;52.124;5.196;2022-12-19T14:10:54;101138.00;;;18.90
20733;BMP180;10527;52.124;5.196;2022-12-19T14:13:53;101143.00;;;18.90
20733;BMP180;10527;52.124;5.196;2022-12-19T14:16:49;101150.00;;;18.90
20733;BMP180;10527;52.124;5.196;2022-12-19T14:19:26;101150.00;;;18.90
20733;BMP180;10527;52.124;5.196;2022-12-19T14:22:10;101150.00;;;18.90
20733;BMP180;10527;52.124;5.196;2022-12-19T14:28:05;101144.00;;;19.00
20733;BMP180;10527;52.124;5.196;2022-12-19T14:31:15;101147.00;;;19.00
20733;BMP180;10527;52.124;5.196;2022-12-19T14:33:49;101135.00;;;19.00
20733;BMP180;10527;52.124;5.196;2022-12-19T14:36:52;101126.00;;;19.00
20733;BMP180;10527;52.124;5.196;2022-12-19T14:39:29;101120.00;;;19.00
20733;BMP180;10527;52.124;5.196;2022-12-19T14:42:12;101128.00;;;19.00
20733;BMP180;10527;52.124;5.196;2022-12-19T14:45:39;101116.00;;;19.00
20733;BMP180;10527;52.124;5.196;2022-12-19T14:48:43;101138.00;;;19.00
20733;BMP180;10527;52.124;5.196;2022-12-19T14:51:36;101143.00;;;19.00
20733;BMP180;10527;52.124;5.196;2022-12-19T14:54:24;101154.00;;;19.00
20733;BMP180;10527;52.124;5.196;2022-12-19T14:57:20;101149.00;;;19.00
20733;BMP180;10527;52.124;5.196;2022-12-19T15:00:47;101157.00;;;19.00
20733;BMP180;10527;52.124;5.196;2022-12-19T15:03:49;101158.00;;;19.00
20733;BMP180;10527;52.124;5.196;2022-12-19T15:06:43;101166.00;;;19.10
20733;BMP180;10527;52.124;5.196;2022-12-19T15:13:20;101178.00;;;19.10
20733;BMP180;10527;52.124;5.196;2022-12-19T15:16:06;101187.00;;;19.10
20733;BMP180;10527;52.124;5.196;2022-12-19T15:18:50;101200.00;;;19.10
20733;BMP180;10527;52.124;5.196;2022-12-19T15:21:19;101194.00;;;19.10
20733;BMP180;10527;52.124;5.196;2022-12-19T15:23:46;101174.00;;;19.10
20733;BMP180;10527;52.124;5.196;2022-12-19T15:26:25;101169.00;;;19.10
20733;BMP180;10527;52.124;5.196;2022-12-19T15:28:55;101155.00;;;19.10
20733;BMP180;10527;52.124;5.196;2022-12-19T15:31:32;101160.00;;;19.00
20733;BMP180;10527;52.124;5.196;2022-12-19T15:34:29;101155.00;;;19.00
20733;BMP180;10527;52.124;5.196;2022-12-19T15:37:09;101158.00;;;19.00
20733;BMP180;10527;52.124;5.196;2022-12-19T15:39:37;101148.00;;;19.00
20733;BMP180;10527;52.124;5.196;2022-12-19T15:42:14;101153.00;;;19.00
20733;BMP180;10527;52.124;5.196;2022-12-19T15:44:43;101139.00;;;19.00
20733;BMP180;10527;52.124;5.196;2022-12-19T15:47:28;101140.00;;;19.00
20733;BMP180;10527;52.124;5.196;2022-12-19T15:49:58;101155.00;;;18.90
20733;BMP180;10527;52.124;5.196;2022-12-19T15:52:28;101156.00;;;18.90
20733;BMP180;10527;52.124;5.196;2022-12-19T15:54:59;101150.00;;;18.90
20733;BMP180;10527;52.124;5.196;2022-12-19T15:57:38;101147.00;;;18.90
20733;BMP180;10527;52.124;5.196;2022-12-19T16:00:17;101141.00;;;18.90
20733;BMP180;10527;52.124;5.196;2022-12-19T16:02:46;101128.00;;;18.90
20733;BMP180;10527;52.124;5.196;2022-12-19T16:05:33;101142.00;;;18.90
20733;BMP180;10527;52.124;5.196;2022-12-19T16:07:59;101146.00;;;18.90
20733;BMP180;10527;52.124;5.196;2022-12-19T16:10:29;101143.00;;;18.90
20733;BMP180;10527;52.124;5.196;2022-12-19T16:12:57;101147.00;;;18.90
20733;BMP180;10527;52.124;5.196;2022-12-19T16:15:33;101143.00;;;18.90
20733;BMP180;10527;52.124;5.196;2022-12-19T16:18:02;101144.00;;;18.90
20733;BMP180;10527;52.124;5.196;2022-12-19T16:20:33;101143.00;;;18.90
20733;BMP180;10527;52.124;5.196;2022-12-19T16:23:02;101152.00;;;18.90